createdAt,value
2019-02-04T00:00:37.936Z,-3.48
2019-02-04T00:03:06.536Z,-3.38
2019-02-04T00:05:34.556Z,-3.64
2019-02-04T00:08:02.638Z,-3.76
2019-02-04T00:10:30.589Z,-3.83
2019-02-04T00:12:59.206Z,-3.68
2019-02-04T00:15:27.502Z,-3.78
2019-02-04T00:17:55.475Z,-3.81
2019-02-04T00:20:23.460Z,-3.87
2019-02-04T00:22:51.457Z,-3.90
2019-02-04T00:25:21.560Z,-3.50
2019-02-04T00:27:49.299Z,-3.51
2019-02-04T00:30:17.413Z,-3.72
2019-02-04T00:32:45.451Z,-3.84
2019-02-04T00:35:13.505Z,-3.89
2019-02-04T00:37:41.559Z,-4.00
2019-02-04T00:40:12.772Z,-3.88
2019-02-04T00:42:41.891Z,-3.92
2019-02-04T00:45:09.892Z,-3.81
2019-02-04T00:47:37.952Z,-3.71
2019-02-04T00:50:06.496Z,-3.82
2019-02-04T00:52:36.592Z,-3.76
2019-02-04T00:55:05.028Z,-3.82
2019-02-04T00:57:33.002Z,-3.76
2019-02-04T01:00:01.451Z,-3.83
2019-02-04T01:02:29.417Z,-4.00
2019-02-04T01:04:57.475Z,-4.12
2019-02-04T01:07:25.480Z,-4.14
2019-02-04T01:09:53.509Z,-3.80
2019-02-04T01:12:21.561Z,-3.78
2019-02-04T01:14:49.583Z,-3.95
2019-02-04T01:17:17.609Z,-4.04
2019-02-04T01:19:45.615Z,-4.12
2019-02-04T01:22:13.635Z,-5.36
2019-02-04T01:24:41.614Z,-4.07
2019-02-04T01:27:09.653Z,-4.03
2019-02-04T01:29:37.655Z,-4.01
2019-02-04T01:32:05.707Z,-4.05
2019-02-04T01:34:33.741Z,-4.17
2019-02-04T01:37:01.755Z,-4.18
2019-02-04T01:39:29.757Z,-4.15
2019-02-04T01:41:57.749Z,-4.17
2019-02-04T01:44:25.777Z,-4.17
2019-02-04T01:46:54.048Z,-4.13
2019-02-04T01:49:22.101Z,-4.18
2019-02-04T01:51:50.151Z,-4.19
2019-02-04T01:54:18.161Z,-4.22
2019-02-04T01:56:46.150Z,-4.21
2019-02-04T01:59:14.210Z,-4.21
2019-02-04T02:01:42.273Z,-4.22
2019-02-04T02:04:10.302Z,-4.25
2019-02-04T02:06:38.270Z,-4.13
2019-02-04T02:09:09.875Z,-4.22
2019-02-04T02:11:37.922Z,-4.27
2019-02-04T02:14:06.170Z,-4.30
2019-02-04T02:16:34.125Z,-4.26
2019-02-04T02:19:02.226Z,-4.27
2019-02-04T02:21:30.205Z,-4.34
2019-02-04T02:23:58.175Z,-4.41
2019-02-04T02:26:26.284Z,-4.42
2019-02-04T02:28:54.308Z,-4.43
2019-02-04T02:34:16.585Z,-4.53
2019-02-04T02:36:44.644Z,-4.52
2019-02-04T02:39:12.698Z,-4.55
2019-02-04T02:41:40.732Z,-4.54
2019-02-04T02:44:08.914Z,-4.61
2019-02-04T02:46:37.175Z,-4.62
2019-02-04T02:49:05.349Z,-4.55
2019-02-04T02:51:33.363Z,-4.58
2019-02-04T02:54:01.393Z,-4.56
2019-02-04T02:56:29.431Z,-4.56
2019-02-04T02:58:57.449Z,-4.56
2019-02-04T03:01:25.449Z,-4.46
2019-02-04T03:03:53.830Z,-4.29
2019-02-04T03:06:21.910Z,-4.21
2019-02-04T03:08:49.934Z,-4.24
2019-02-04T03:11:17.974Z,-4.27
2019-02-04T03:13:45.973Z,-4.24
2019-02-04T03:16:14.335Z,-4.13
2019-02-04T03:18:42.414Z,-4.05
2019-02-04T03:21:10.507Z,-4.05
2019-02-04T03:23:38.573Z,-4.04
2019-02-04T03:26:06.562Z,-3.97
2019-02-04T03:28:34.558Z,-3.89
2019-02-04T03:31:02.584Z,-3.87
2019-02-04T03:36:17.569Z,-3.79
2019-02-04T03:38:45.538Z,-3.76
2019-02-04T03:41:13.678Z,-3.74
2019-02-04T03:43:43.396Z,-3.72
2019-02-04T03:46:11.789Z,-3.74
2019-02-04T03:48:39.810Z,-3.72
2019-02-04T03:51:07.814Z,-3.65
2019-02-04T03:53:35.942Z,-3.61
2019-02-04T03:56:03.932Z,-3.57
2019-02-04T03:58:33.973Z,-3.52
2019-02-04T04:01:01.933Z,-3.47
2019-02-04T04:03:29.981Z,-3.43
2019-02-04T04:05:58.033Z,-3.37
2019-02-04T04:08:26.070Z,-3.33
2019-02-04T04:10:54.081Z,-3.26
2019-02-04T04:13:22.078Z,-3.22
2019-02-04T04:15:50.078Z,-3.22
2019-02-04T04:18:18.153Z,-3.22
2019-02-04T04:20:46.178Z,-3.31
2019-02-04T04:23:14.196Z,-3.36
2019-02-04T04:25:42.203Z,-3.41
2019-02-04T04:28:10.232Z,-3.39
2019-02-04T04:30:38.477Z,-3.43
2019-02-04T04:33:06.472Z,-3.49
2019-02-04T04:35:34.503Z,-3.51
2019-02-04T04:38:02.532Z,-3.47
2019-02-04T04:40:30.552Z,-3.38
2019-02-04T04:42:58.864Z,-3.31
2019-02-04T04:45:26.866Z,-3.28
2019-02-04T04:47:55.006Z,-3.27
2019-02-04T04:50:23.053Z,-3.26
2019-02-04T04:52:51.079Z,-3.25
2019-02-04T04:55:21.213Z,-3.21
2019-02-04T04:57:49.239Z,-3.18
2019-02-04T05:00:19.785Z,-3.15
2019-02-04T05:02:47.790Z,-3.05
2019-02-04T05:05:15.889Z,-2.99
2019-02-04T05:07:43.968Z,-2.95
2019-02-04T05:10:14.319Z,-2.88
2019-02-04T05:12:42.431Z,-2.81
2019-02-04T05:15:13.227Z,-2.71
2019-02-04T05:17:40.391Z,-2.68
2019-02-04T05:20:09.150Z,-2.53
2019-02-04T05:22:37.140Z,-2.19
2019-02-04T05:25:05.337Z,-2.05
2019-02-04T05:27:33.391Z,-1.73
2019-02-04T05:30:01.555Z,-1.42
2019-02-04T05:32:31.357Z,-1.33
2019-02-04T05:34:59.364Z,-1.29
2019-02-04T05:37:27.484Z,-1.32
2019-02-04T05:39:55.604Z,-1.24
2019-02-04T05:42:26.718Z,-1.24
2019-02-04T05:44:54.769Z,-1.17
2019-02-04T05:47:24.540Z,-1.16
2019-02-04T05:49:52.572Z,-1.07
2019-02-04T05:52:20.618Z,-1.11
2019-02-04T05:54:48.666Z,-1.08
2019-02-04T05:57:16.765Z,-1.15
2019-02-04T05:59:44.769Z,-1.29
2019-02-04T06:02:13.143Z,-1.51
2019-02-04T06:04:41.283Z,-1.27
2019-02-04T06:07:09.299Z,-1.35
2019-02-04T06:09:37.399Z,-1.24
2019-02-04T06:12:05.395Z,-1.22
2019-02-04T06:14:33.427Z,-1.19
2019-02-04T06:17:01.521Z,-1.24
2019-02-04T06:19:29.879Z,-1.37
2019-02-04T06:21:57.851Z,-1.41
2019-02-04T06:24:25.919Z,-1.45
2019-02-04T06:26:53.909Z,-1.42
2019-02-04T06:29:21.959Z,-1.44
2019-02-04T06:31:50.002Z,-1.37
2019-02-04T06:34:18.659Z,-1.28
2019-02-04T06:36:46.717Z,-1.21
2019-02-04T06:39:14.772Z,-1.23
2019-02-04T06:41:42.814Z,-1.36
2019-02-04T06:44:10.860Z,-1.40
2019-02-04T06:46:38.883Z,-1.36
2019-02-04T06:49:12.369Z,-1.41
2019-02-04T06:51:36.628Z,-1.39
2019-02-04T06:54:04.677Z,-1.33
2019-02-04T06:56:32.694Z,-1.51
2019-02-04T06:59:00.760Z,-1.44
2019-02-04T07:01:28.757Z,-1.41
2019-02-04T07:03:56.810Z,-1.46
2019-02-04T07:06:25.305Z,-1.39
2019-02-04T07:08:53.334Z,-1.44
2019-02-04T07:11:21.353Z,-1.51
2019-02-04T07:13:49.380Z,-1.62
2019-02-04T07:16:17.485Z,-1.54
2019-02-04T07:18:45.577Z,-1.55
2019-02-04T07:21:13.601Z,-1.56
2019-02-04T07:23:42.144Z,-1.66
2019-02-04T07:26:10.269Z,-1.75
2019-02-04T07:28:38.235Z,-1.58
2019-02-04T07:31:06.387Z,-1.52
2019-02-04T07:33:34.405Z,-1.52
2019-02-04T07:36:03.552Z,-1.45
2019-02-04T07:38:31.750Z,-1.38
2019-02-04T07:40:59.820Z,-1.46
2019-02-04T07:43:27.852Z,-1.43
2019-02-04T07:45:56.027Z,-1.46
2019-02-04T07:48:24.030Z,-1.49
2019-02-04T07:50:52.198Z,-1.41
2019-02-04T07:53:20.211Z,-1.41
2019-02-04T07:55:48.630Z,-1.28
2019-02-04T07:58:16.662Z,-1.20
2019-02-04T08:00:44.822Z,-1.15
2019-02-04T08:03:15.049Z,-1.17
2019-02-04T08:05:42.739Z,-1.18
2019-02-04T08:08:10.800Z,-1.09
2019-02-04T08:10:38.877Z,-1.11
2019-02-04T08:13:06.869Z,-1.00
2019-02-04T08:15:37.035Z,-0.84
2019-02-04T08:18:05.547Z,-0.75
2019-02-04T08:20:33.665Z,-0.65
2019-02-04T08:23:01.691Z,-0.65
2019-02-04T08:25:29.699Z,-0.50
2019-02-04T08:27:58.003Z,-0.43
2019-02-04T08:30:28.181Z,-0.14
2019-02-04T08:32:56.596Z,-0.03
2019-02-04T08:35:24.937Z,-0.02
2019-02-04T08:37:52.942Z,0.09
2019-02-04T08:40:20.963Z,-0.12
2019-02-04T08:42:49.005Z,0.17
2019-02-04T08:45:16.975Z,0.36
2019-02-04T08:47:45.000Z,0.50
2019-02-04T08:50:15.336Z,0.65
2019-02-04T08:52:43.506Z,0.63
2019-02-04T08:55:11.697Z,0.74
2019-02-04T08:57:39.744Z,0.85
2019-02-04T09:00:09.760Z,0.83
2019-02-04T09:02:37.726Z,0.99
2019-02-04T09:05:05.958Z,1.04
2019-02-04T09:07:33.996Z,1.16
2019-02-04T09:10:02.255Z,1.38
2019-02-04T09:12:30.428Z,1.58
2019-02-04T09:14:58.509Z,1.74
2019-02-04T09:17:26.673Z,1.71
2019-02-04T09:19:54.721Z,1.82
2019-02-04T09:22:22.763Z,1.96
2019-02-04T09:24:50.863Z,1.97
2019-02-04T09:27:18.959Z,2.02
2019-02-04T09:29:47.163Z,2.10
2019-02-04T09:32:15.346Z,2.05
2019-02-04T09:34:45.076Z,2.25
2019-02-04T09:37:13.217Z,2.33
2019-02-04T09:39:41.310Z,2.44
2019-02-04T09:42:09.288Z,2.51
2019-02-04T09:44:37.317Z,2.55
2019-02-04T09:47:05.369Z,2.46
2019-02-04T09:49:33.446Z,2.51
2019-02-04T09:52:01.849Z,2.61
2019-02-04T09:54:29.903Z,2.73
2019-02-04T09:56:58.024Z,2.82
2019-02-04T09:59:26.104Z,2.90
2019-02-04T10:01:54.221Z,3.04
2019-02-04T10:04:22.220Z,2.93
2019-02-04T10:06:50.491Z,2.80
2019-02-04T10:09:18.497Z,2.91
2019-02-04T10:11:46.554Z,2.89
2019-02-04T10:14:14.547Z,2.98
2019-02-04T10:16:42.653Z,2.89
2019-02-04T10:19:10.857Z,2.88
2019-02-04T10:21:38.939Z,2.96
2019-02-04T10:24:06.910Z,2.96
2019-02-04T10:26:35.008Z,2.86
2019-02-04T10:29:02.964Z,2.92
2019-02-04T10:31:31.000Z,2.97
2019-02-04T10:33:59.189Z,3.05
2019-02-04T10:36:27.253Z,3.01
2019-02-04T10:38:55.689Z,3.20
2019-02-04T10:41:23.651Z,3.21
2019-02-04T10:43:51.743Z,3.15
2019-02-04T10:46:19.832Z,2.09
2019-02-04T10:48:48.086Z,3.18
2019-02-04T10:51:16.143Z,3.23
2019-02-04T10:53:44.201Z,3.27
2019-02-04T10:56:12.494Z,3.07
2019-02-04T10:58:40.485Z,3.16
2019-02-04T11:01:08.454Z,3.35
2019-02-04T11:03:36.731Z,3.32
2019-02-04T11:06:04.794Z,3.19
2019-02-04T11:08:32.966Z,3.57
2019-02-04T11:11:01.930Z,3.60
2019-02-04T11:13:29.971Z,3.66
2019-02-04T11:15:58.002Z,3.66
2019-02-04T11:18:25.969Z,3.69
2019-02-04T11:20:58.071Z,3.57
2019-02-04T11:23:23.767Z,3.56
2019-02-04T11:25:51.840Z,3.59
2019-02-04T11:28:20.173Z,3.60
2019-02-04T11:30:51.320Z,3.15
2019-02-04T11:33:19.449Z,3.43
2019-02-04T11:35:47.736Z,1.30
2019-02-04T11:38:15.795Z,3.51
2019-02-04T11:40:45.846Z,3.71
2019-02-04T11:43:13.548Z,3.54
2019-02-04T11:45:41.508Z,3.77
2019-02-04T11:48:10.616Z,3.63
2019-02-04T11:50:38.818Z,3.64
2019-02-04T11:53:06.979Z,3.76
2019-02-04T11:55:34.963Z,3.93
2019-02-04T11:58:03.275Z,3.96
2019-02-04T12:00:31.281Z,3.94
2019-02-04T12:03:00.489Z,3.87
2019-02-04T12:05:28.941Z,3.92
2019-02-04T12:07:57.049Z,4.12
2019-02-04T12:10:30.914Z,3.98
2019-02-04T12:12:59.217Z,4.02
2019-02-04T12:15:27.217Z,4.01
2019-02-04T12:17:55.215Z,3.96
2019-02-04T12:20:23.329Z,4.02
2019-02-04T12:22:51.396Z,3.98
2019-02-04T12:25:22.939Z,4.04
2019-02-04T12:27:51.034Z,4.13
2019-02-04T12:30:27.038Z,4.11
2019-02-04T12:32:55.386Z,4.08
2019-02-04T12:35:23.398Z,4.20
2019-02-04T12:37:51.466Z,4.21
2019-02-04T12:40:19.468Z,4.19
2019-02-04T12:42:48.050Z,4.35
2019-02-04T12:45:21.793Z,4.17
2019-02-04T12:47:49.885Z,4.20
2019-02-04T12:50:17.910Z,4.34
2019-02-04T12:52:46.287Z,4.30
2019-02-04T12:55:16.967Z,4.61
2019-02-04T12:57:45.343Z,4.68
2019-02-04T13:00:16.434Z,4.70
2019-02-04T13:02:44.677Z,4.86
2019-02-04T13:05:16.944Z,4.79
2019-02-04T13:07:46.701Z,5.03
2019-02-04T13:10:15.966Z,5.02
2019-02-04T13:12:44.017Z,4.87
2019-02-04T13:15:14.612Z,5.04
2019-02-04T13:17:42.677Z,4.62
2019-02-04T13:20:11.648Z,5.24
2019-02-04T13:22:39.790Z,5.29
2019-02-04T13:25:09.151Z,5.28
2019-02-04T13:27:37.647Z,5.16
2019-02-04T13:30:06.442Z,5.50
2019-02-04T13:32:34.525Z,5.26
2019-02-04T13:35:02.665Z,5.30
2019-02-04T13:37:30.724Z,5.12
2019-02-04T13:40:02.922Z,4.94
2019-02-04T13:42:31.402Z,4.69
2019-02-04T13:44:59.551Z,4.94
2019-02-04T13:47:27.540Z,5.03
2019-02-04T13:49:55.561Z,5.20
2019-02-04T13:52:23.686Z,5.07
2019-02-04T13:54:51.731Z,5.15
2019-02-04T13:57:21.890Z,4.83
2019-02-04T13:59:49.922Z,4.93
2019-02-04T14:02:23.772Z,4.89
2019-02-04T14:04:51.825Z,4.86
2019-02-04T14:07:21.432Z,5.00
2019-02-04T14:09:49.697Z,4.85
2019-02-04T14:12:20.775Z,4.82
2019-02-04T14:14:48.876Z,4.69
2019-02-04T14:17:16.852Z,4.65
2019-02-04T14:19:44.891Z,4.78
2019-02-04T14:22:12.912Z,4.79
2019-02-04T14:24:40.957Z,4.90
2019-02-04T14:27:09.205Z,4.81
2019-02-04T14:29:37.253Z,4.84
2019-02-04T14:32:05.346Z,4.34
2019-02-04T14:34:33.812Z,4.55
2019-02-04T14:37:02.253Z,4.73
2019-02-04T14:39:30.584Z,4.58
2019-02-04T14:41:58.964Z,4.34
2019-02-04T14:44:57.790Z,4.37
2019-02-04T14:47:49.742Z,4.01
2019-02-04T14:50:56.000Z,4.18
2019-02-04T14:53:53.256Z,4.14
2019-02-04T14:56:44.920Z,4.20
2019-02-04T14:59:50.065Z,3.93
2019-02-04T15:03:19.700Z,3.99
2019-02-04T15:06:37.843Z,3.74
2019-02-04T15:09:50.476Z,3.77
2019-02-04T15:13:08.321Z,3.56
2019-02-04T15:16:01.397Z,3.78
2019-02-04T15:19:00.718Z,3.73
2019-02-04T15:22:05.737Z,3.68
2019-02-04T15:25:23.427Z,3.71
2019-02-04T15:28:11.475Z,3.42
2019-02-04T15:31:05.847Z,3.43
2019-02-04T15:34:18.235Z,3.55
2019-02-04T15:37:00.737Z,3.37
2019-02-04T15:40:07.007Z,3.21
2019-02-04T15:43:04.773Z,3.25
2019-02-04T15:46:17.209Z,3.16
2019-02-04T15:49:26.426Z,3.14
2019-02-04T15:51:57.864Z,3.21
2019-02-04T15:54:25.896Z,3.08
2019-02-04T15:56:55.341Z,3.04
2019-02-04T15:59:23.369Z,2.99
2019-02-04T16:01:51.921Z,2.93
2019-02-04T16:04:27.866Z,2.99
2019-02-04T16:06:55.960Z,2.89
2019-02-04T16:09:23.995Z,2.88
2019-02-04T16:11:51.982Z,2.83
2019-02-04T16:16:55.856Z,2.82
2019-02-04T16:19:24.557Z,2.76
2019-02-04T16:21:53.111Z,2.66
2019-02-04T16:24:21.610Z,2.66
2019-02-04T16:26:49.710Z,2.69
2019-02-04T16:29:25.075Z,2.57
2019-02-04T16:31:54.152Z,2.48
2019-02-04T16:34:24.125Z,2.54
2019-02-04T16:36:52.113Z,2.46
2019-02-04T16:39:20.363Z,2.39
2019-02-04T16:41:48.405Z,2.43
2019-02-04T16:44:16.519Z,2.45
2019-02-04T16:46:44.819Z,2.41
2019-02-04T16:49:12.971Z,2.44
2019-02-04T16:51:41.080Z,2.32
2019-02-04T16:54:09.100Z,2.22
2019-02-04T16:56:37.162Z,2.26
2019-02-04T16:59:05.305Z,2.22
2019-02-04T17:01:33.466Z,2.23
2019-02-04T17:04:01.794Z,2.31
2019-02-04T17:06:30.119Z,2.26
2019-02-04T17:08:58.181Z,2.17
2019-02-04T17:11:26.220Z,2.18
2019-02-04T17:13:54.336Z,2.11
2019-02-04T17:16:22.419Z,2.10
2019-02-04T17:18:50.792Z,2.13
2019-02-04T17:21:19.006Z,2.16
2019-02-04T17:23:47.599Z,2.16
2019-02-04T17:26:15.940Z,2.13
2019-02-04T17:28:45.326Z,2.06
2019-02-04T17:31:13.960Z,2.12
2019-02-04T17:33:42.046Z,2.12
2019-02-04T17:36:10.301Z,2.07
2019-02-04T17:38:38.567Z,2.09
2019-02-04T17:41:06.959Z,2.08
2019-02-04T17:43:35.051Z,2.15
2019-02-04T17:46:03.265Z,2.11
2019-02-04T17:48:31.341Z,2.07
2019-02-04T17:50:59.964Z,2.06
2019-02-04T17:53:34.391Z,2.05
2019-02-04T17:55:58.091Z,2.06
2019-02-04T17:58:26.490Z,2.08
2019-02-04T18:00:55.297Z,2.00
2019-02-04T18:03:35.598Z,1.89
2019-02-04T18:06:04.208Z,1.93
2019-02-04T18:08:32.266Z,2.01
2019-02-04T18:11:00.412Z,1.99
2019-02-04T18:13:28.776Z,2.02
2019-02-04T18:15:57.340Z,2.05
2019-02-04T18:18:25.689Z,1.99
2019-02-04T18:20:54.017Z,1.99
2019-02-04T18:23:25.128Z,2.04
2019-02-04T18:25:53.618Z,2.08
2019-02-04T18:28:22.832Z,2.01
2019-02-04T18:30:51.194Z,2.04
2019-02-04T18:33:19.549Z,2.05
2019-02-04T18:35:47.722Z,2.10
2019-02-04T18:38:16.240Z,2.06
2019-02-04T18:40:46.115Z,1.99
2019-02-04T18:43:14.357Z,1.96
2019-02-04T18:45:43.830Z,2.02
2019-02-04T18:48:12.697Z,2.06
2019-02-04T18:50:42.626Z,0.11
2019-02-04T18:53:11.948Z,2.08
2019-02-04T18:56:00.974Z,2.07
2019-02-04T18:58:33.035Z,2.03
2019-02-04T19:01:02.231Z,1.99
2019-02-04T19:03:31.864Z,1.95
2019-02-04T19:06:00.946Z,2.04
2019-02-04T19:08:31.709Z,2.03
2019-02-04T19:11:00.988Z,2.07
2019-02-04T19:13:36.275Z,2.07
2019-02-04T19:16:01.441Z,2.09
2019-02-04T19:18:31.340Z,2.00
2019-02-04T19:21:00.750Z,2.04
2019-02-04T19:23:29.901Z,2.07
2019-02-04T19:25:59.534Z,2.01
2019-02-04T19:31:39.782Z,1.97
2019-02-04T19:34:09.018Z,1.97
2019-02-04T19:36:38.370Z,2.00
2019-02-04T19:39:08.850Z,1.92
2019-02-04T19:41:37.772Z,1.91
2019-02-04T19:44:07.277Z,1.90
2019-02-04T19:46:36.248Z,1.93
2019-02-04T19:49:06.067Z,1.82
2019-02-04T19:51:37.459Z,1.87
2019-02-04T19:54:07.735Z,1.97
2019-02-04T19:56:36.721Z,1.89
2019-02-04T19:59:05.448Z,1.91
2019-02-04T20:01:35.106Z,1.89
2019-02-04T20:04:04.255Z,1.95
2019-02-04T20:06:33.847Z,1.91
2019-02-04T20:09:05.283Z,1.89
2019-02-04T20:11:34.315Z,1.86
2019-02-04T20:14:03.675Z,1.93
2019-02-04T20:16:34.088Z,1.07
2019-02-04T20:19:04.444Z,1.94
2019-02-04T20:24:11.309Z,1.84
2019-02-04T20:26:41.067Z,1.90
2019-02-04T20:29:10.725Z,1.90
2019-02-04T20:31:41.220Z,1.89
2019-02-04T20:34:10.265Z,1.90
2019-02-04T20:36:39.027Z,1.87
2019-02-04T20:39:10.069Z,1.75
2019-02-04T20:41:39.485Z,1.81
2019-02-04T20:44:11.267Z,1.87
2019-02-04T20:46:40.513Z,1.83
2019-02-04T20:49:09.461Z,1.82
2019-02-04T20:51:38.711Z,1.85
2019-02-04T20:54:19.265Z,1.90
2019-02-04T20:56:38.344Z,1.92
2019-02-04T20:59:07.456Z,1.99
2019-02-04T21:01:36.878Z,2.02
2019-02-04T21:04:24.415Z,1.94
2019-02-04T21:06:56.203Z,1.95
2019-02-04T21:09:23.671Z,1.96
2019-02-04T21:11:52.515Z,1.93
2019-02-04T21:14:21.063Z,2.01
2019-02-04T21:16:49.388Z,2.12
2019-02-04T21:19:17.526Z,2.07
2019-02-04T21:21:45.892Z,2.10
2019-02-04T21:24:14.012Z,2.25
2019-02-04T21:26:42.918Z,2.10
2019-02-04T21:29:11.520Z,2.06
2019-02-04T21:31:39.894Z,2.12
2019-02-04T21:34:08.218Z,2.03
2019-02-04T21:36:36.402Z,2.06
2019-02-04T21:39:06.058Z,2.10
2019-02-04T21:41:34.845Z,2.09
2019-02-04T21:44:03.112Z,2.22
2019-02-04T21:46:31.256Z,2.21
2019-02-04T21:49:01.320Z,2.18
2019-02-04T21:51:29.494Z,2.13
2019-02-04T21:53:57.561Z,2.19
2019-02-04T21:56:25.667Z,2.12
2019-02-04T21:58:53.997Z,2.14
2019-02-04T22:01:22.330Z,2.20
2019-02-04T22:03:50.457Z,2.12
2019-02-04T22:06:18.595Z,2.20
2019-02-04T22:08:46.698Z,2.18
2019-02-04T22:11:14.845Z,2.22
2019-02-04T22:13:42.923Z,2.23
2019-02-04T22:16:11.256Z,2.25
2019-02-04T22:18:39.390Z,2.11
2019-02-04T22:21:07.621Z,1.39
2019-02-04T22:23:35.828Z,2.17
2019-02-04T22:26:03.908Z,2.21
2019-02-04T22:28:32.181Z,2.29
2019-02-04T22:31:00.541Z,2.30
2019-02-04T22:33:28.716Z,2.23
2019-02-04T22:35:56.821Z,2.26
2019-02-04T22:38:24.820Z,2.28
2019-02-04T22:40:52.902Z,2.26
2019-02-04T22:43:20.990Z,2.29
2019-02-04T22:45:49.038Z,2.28
2019-02-04T22:48:17.084Z,2.31
2019-02-04T22:50:45.100Z,2.26
2019-02-04T22:53:13.247Z,2.31
2019-02-04T22:55:41.269Z,2.30
2019-02-04T22:58:09.409Z,2.34
2019-02-04T23:01:02.595Z,2.39
2019-02-04T23:03:30.605Z,2.33
2019-02-04T23:05:58.923Z,2.39
2019-02-04T23:08:27.017Z,2.32
2019-02-04T23:10:55.031Z,2.30
2019-02-04T23:13:23.116Z,2.26
2019-02-04T23:15:54.105Z,2.28
2019-02-04T23:18:22.361Z,2.26
2019-02-04T23:20:50.379Z,2.32
2019-02-04T23:23:18.458Z,2.28
2019-02-04T23:25:46.429Z,2.26
2019-02-04T23:28:14.466Z,2.21
2019-02-04T23:30:44.232Z,2.19
2019-02-04T23:33:12.244Z,2.19
2019-02-04T23:35:40.242Z,2.19
2019-02-04T23:38:08.251Z,2.25
2019-02-04T23:40:36.247Z,2.24
2019-02-04T23:43:04.215Z,2.21
2019-02-04T23:45:32.228Z,2.14
2019-02-04T23:48:00.564Z,2.20
2019-02-04T23:50:28.547Z,2.18
2019-02-04T23:52:56.539Z,2.25
2019-02-04T23:55:24.534Z,2.27
2019-02-04T23:57:52.563Z,2.24
